Terminal Aerodrome Forecast
Issued by NWS

Home | Current Version | Previous Version | Text Only | Print | Product List | Glossary Off
Versions: 1 2 3 4 5 6 7 8 9 10 11 12 13 14 15 16 17 18 19 20 21 22 23 24 25 26 27 28

285
FTUS43 KBIS 231542 AAB
TAFMOT
TAF AMD
KMOT 231542Z 2316/2412 07014G22KT P6SM BKN025
     FM231800 09011G22KT P6SM VCSH BKN015
      TEMPO 2319/2322 5SM -SHRA BKN009
     FM240100 10011G23KT P6SM OVC008
     FM240400 10009KT 5SM -SHRA VCTS OVC006CB
     FM241000 11009KT P6SM OVC008=

USA.gov is the U.S. government's official web portal to all federal, state and local government web resources and services.